Time;durP1;ratioP1;P1;durP2;ratioP2;P2;SDS_P1;SDS_P2;PMS_P1;PMS_P2;Temp;Humidity;BMP_temperature;BMP_pressure;BME280_temperature;BME280_humidity;BME280_pressure;Samples;Min_cycle;Max_cycle;Signal;HPM_P1;HPM_P2
2023/11/15 00:01:50;;;;;;;7.35;4.35;;;;;;;;;;5066655;28;20017;-57
2023/11/15 00:04:19;;;;;;;5.68;3.85;;;;;;;;;;5062143;28;20104;-57
2023/11/15 00:06:44;;;;;;;6.00;4.25;;;;;;;;;;5074418;28;20016;-57
2023/11/15 00:09:10;;;;;;;6.00;3.80;;;;;;;;;;5062258;28;20390;-57
2023/11/15 00:11:35;;;;;;;6.43;3.83;;;;;;;;;;5063804;28;20024;-57
2023/11/15 00:14:01;;;;;;;7.28;3.95;;;;;;;;;;5065902;28;20617;-57
2023/11/15 00:16:26;;;;;;;5.90;4.15;;;;;;;;;;5071489;28;20490;-57
2023/11/15 00:18:52;;;;;;;5.38;3.70;;;;;;;;;;5074223;28;20024;-57
2023/11/15 00:21:18;;;;;;;5.03;3.92;;;;;;;;;;5068271;28;20555;-60
2023/11/15 00:23:43;;;;;;;7.00;3.65;;;;;;;;;;5065489;28;20027;-59
2023/11/15 00:26:09;;;;;;;5.32;4.00;;;;;;;;;;5064843;28;20039;-58
2023/11/15 00:28:34;;;;;;;5.07;3.70;;;;;;;;;;5059004;28;20107;-61
2023/11/15 00:31:00;;;;;;;6.25;3.65;;;;;;;;;;5066747;28;20116;-56
2023/11/15 00:33:26;;;;;;;5.93;3.63;;;;;;;;;;5062777;28;20029;-56
2023/11/15 00:35:52;;;;;;;5.63;3.90;;;;;;;;;;5064992;28;20270;-58
2023/11/15 00:38:17;;;;;;;5.43;3.55;;;;;;;;;;5063869;28;20020;-58
2023/11/15 00:40:42;;;;;;;5.28;3.70;;;;;;;;;;5066002;28;20036;-60
2023/11/15 00:43:07;;;;;;;6.07;3.80;;;;;;;;;;5066266;28;20490;-58
2023/11/15 00:45:33;;;;;;;5.68;3.95;;;;;;;;;;5064616;28;20078;-58
2023/11/15 00:47:58;;;;;;;5.40;3.90;;;;;;;;;;5061691;28;20335;-58
2023/11/15 00:50:23;;;;;;;6.53;4.05;;;;;;;;;;5064073;28;20021;-58
2023/11/15 00:52:49;;;;;;;6.57;4.00;;;;;;;;;;5065663;28;20119;-57
2023/11/15 00:55:14;;;;;;;6.57;3.70;;;;;;;;;;5062960;28;20876;-57
2023/11/15 00:57:39;;;;;;;5.33;3.60;;;;;;;;;;5065296;28;20021;-58
2023/11/15 01:00:21;;;;;;;5.68;3.80;;;;;;;;;;5065049;28;20752;-59
2023/11/15 01:02:47;;;;;;;5.85;3.65;;;;;;;;;;5064928;28;20037;-58
2023/11/15 01:05:13;;;;;;;5.47;3.80;;;;;;;;;;5062458;28;20494;-60
2023/11/15 01:07:38;;;;;;;5.80;3.60;;;;;;;;;;5049456;28;20870;-58
2023/11/15 01:10:08;;;;;;;5.57;3.42;;;;;;;;;;5065186;28;20119;-58
2023/11/15 01:12:33;;;;;;;4.38;3.47;;;;;;;;;;5064999;28;20047;-58
2023/11/15 01:14:58;;;;;;;6.03;3.60;;;;;;;;;;5064843;28;20433;-56
2023/11/15 01:17:25;;;;;;;5.07;3.63;;;;;;;;;;5063496;28;20029;-57
2023/11/15 01:19:50;;;;;;;4.90;3.38;;;;;;;;;;5065096;28;20032;-57
2023/11/15 01:22:15;;;;;;;5.45;3.40;;;;;;;;;;5063547;28;20040;-57
2023/11/15 01:24:41;;;;;;;4.93;3.38;;;;;;;;;;5061442;28;20822;-57
2023/11/15 01:27:07;;;;;;;4.97;3.80;;;;;;;;;;5067059;28;20038;-57
2023/11/15 01:29:32;;;;;;;5.50;3.65;;;;;;;;;;5062387;28;20029;-57
2023/11/15 01:31:58;;;;;;;6.40;3.47;;;;;;;;;;5064863;28;20428;-57
2023/11/15 01:34:23;;;;;;;4.63;3.30;;;;;;;;;;5062944;28;20032;-57
2023/11/15 01:36:48;;;;;;;5.82;4.05;;;;;;;;;;5063243;28;20549;-57
2023/11/15 01:39:16;;;;;;;5.10;3.67;;;;;;;;;;5064312;28;20548;-57
2023/11/15 01:41:47;;;;;;;5.53;3.70;;;;;;;;;;5065405;28;20305;-57
2023/11/15 01:44:13;;;;;;;4.22;3.30;;;;;;;;;;5061974;28;20115;-57
2023/11/15 01:46:38;;;;;;;5.65;3.80;;;;;;;;;;5063347;28;20175;-57
2023/11/15 01:49:03;;;;;;;4.10;3.20;;;;;;;;;;5066058;28;20029;-57
2023/11/15 01:51:29;;;;;;;6.10;4.00;;;;;;;;;;5064569;28;20297;-57
2023/11/15 01:53:54;;;;;;;5.70;3.53;;;;;;;;;;5047239;28;20037;-59
2023/11/15 01:56:19;;;;;;;5.93;3.53;;;;;;;;;;5059556;28;20501;-56
2023/11/15 01:58:44;;;;;;;4.97;3.73;;;;;;;;;;5064606;28;20059;-57
2023/11/15 02:01:10;;;;;;;5.03;3.40;;;;;;;;;;5064419;28;20713;-57
2023/11/15 02:03:36;;;;;;;4.10;3.55;;;;;;;;;;5062166;28;20286;-59
2023/11/15 02:06:02;;;;;;;4.88;3.60;;;;;;;;;;5064465;28;20058;-58
2023/11/15 02:08:27;;;;;;;4.88;3.00;;;;;;;;;;5067066;28;20037;-57
2023/11/15 02:10:52;;;;;;;4.93;3.50;;;;;;;;;;5068804;28;20442;-57
2023/11/15 02:13:25;;;;;;;5.65;3.30;;;;;;;;;;5065540;28;20041;-58
2023/11/15 02:15:52;;;;;;;5.40;3.00;;;;;;;;;;5063626;28;20151;-58
2023/11/15 02:18:17;;;;;;;4.60;3.28;;;;;;;;;;5067724;28;20044;-57
2023/11/15 02:20:42;;;;;;;4.47;3.08;;;;;;;;;;5062997;28;20406;-57
2023/11/15 02:23:08;;;;;;;4.63;3.30;;;;;;;;;;5061873;28;20573;-57
2023/11/15 02:25:33;;;;;;;5.35;3.47;;;;;;;;;;5059957;28;20028;-57
2023/11/15 02:28:00;;;;;;;4.67;3.20;;;;;;;;;;5062163;28;20409;-57
2023/11/15 02:30:25;;;;;;;5.20;3.20;;;;;;;;;;5062251;28;20407;-59
2023/11/15 02:32:50;;;;;;;4.70;3.13;;;;;;;;;;5062244;28;20059;-57
2023/11/15 02:35:16;;;;;;;4.83;3.30;;;;;;;;;;5062207;28;20093;-57
2023/11/15 02:37:41;;;;;;;4.55;3.15;;;;;;;;;;5071254;28;20274;-57
2023/11/15 02:40:11;;;;;;;3.92;3.17;;;;;;;;;;5062644;28;20039;-57
2023/11/15 02:42:36;;;;;;;4.97;3.50;;;;;;;;;;5052434;28;20048;-57
2023/11/15 02:45:01;;;;;;;4.55;3.33;;;;;;;;;;5062063;28;20479;-57
2023/11/15 02:47:26;;;;;;;4.65;3.50;;;;;;;;;;5060287;28;20041;-58
2023/11/15 02:49:52;;;;;;;4.53;2.97;;;;;;;;;;5062711;28;20485;-60
2023/11/15 02:52:18;;;;;;;4.05;3.03;;;;;;;;;;5062227;28;20044;-58
2023/11/15 02:54:43;;;;;;;4.53;3.22;;;;;;;;;;5050637;28;20033;-58
2023/11/15 02:57:10;;;;;;;4.32;2.90;;;;;;;;;;5062456;28;20359;-59
2023/11/15 02:59:36;;;;;;;4.32;3.20;;;;;;;;;;5061831;28;20032;-57
2023/11/15 03:02:01;;;;;;;4.07;2.97;;;;;;;;;;5042167;28;20037;-56
2023/11/15 03:04:26;;;;;;;5.30;3.13;;;;;;;;;;5062397;28;20539;-57
2023/11/15 03:06:51;;;;;;;4.83;3.10;;;;;;;;;;5071666;28;20036;-57
2023/11/15 03:09:17;;;;;;;4.37;3.00;;;;;;;;;;5071936;28;20310;-57
2023/11/15 03:11:42;;;;;;;4.72;3.17;;;;;;;;;;5062157;28;20867;-56
2023/11/15 03:14:08;;;;;;;4.43;3.40;;;;;;;;;;5072761;28;20072;-59
2023/11/15 03:16:33;;;;;;;4.68;3.10;;;;;;;;;;5077212;28;20036;-57
2023/11/15 03:18:59;;;;;;;4.68;3.40;;;;;;;;;;5067164;28;20043;-57
2023/11/15 03:21:25;;;;;;;4.85;3.22;;;;;;;;;;5065136;28;20067;-56
2023/11/15 03:23:50;;;;;;;3.88;2.85;;;;;;;;;;5066935;28;20046;-58
2023/11/15 03:26:16;;;;;;;4.43;2.95;;;;;;;;;;5064827;28;20111;-57
2023/11/15 03:28:41;;;;;;;5.22;2.90;;;;;;;;;;5064298;28;20032;-57
2023/11/15 03:31:06;;;;;;;4.95;3.10;;;;;;;;;;5070209;28;20507;-56
2023/11/15 03:33:32;;;;;;;4.28;2.90;;;;;;;;;;5066306;28;20163;-56
2023/11/15 03:35:57;;;;;;;4.78;3.20;;;;;;;;;;5071591;28;20496;-57
2023/11/15 03:38:22;;;;;;;5.45;2.85;;;;;;;;;;5076172;28;20094;-57
2023/11/15 03:40:47;;;;;;;4.03;3.00;;;;;;;;;;5069035;28;20029;-59
2023/11/15 03:43:13;;;;;;;4.13;2.85;;;;;;;;;;5064680;28;20098;-58
2023/11/15 03:45:38;;;;;;;3.92;2.60;;;;;;;;;;5067650;28;20115;-57
2023/11/15 03:48:03;;;;;;;4.10;3.23;;;;;;;;;;5065251;28;20060;-58
2023/11/15 03:50:29;;;;;;;4.60;3.20;;;;;;;;;;5070794;28;20286;-57
2023/11/15 03:52:54;;;;;;;4.40;2.80;;;;;;;;;;5066252;28;20053;-58
2023/11/15 03:55:20;;;;;;;4.03;2.88;;;;;;;;;;5056870;28;20191;-58
2023/11/15 03:57:46;;;;;;;3.63;2.75;;;;;;;;;;5065954;28;20041;-58
2023/11/15 04:00:12;;;;;;;4.68;2.90;;;;;;;;;;5063590;28;20120;-58
2023/11/15 04:02:37;;;;;;;4.78;2.95;;;;;;;;;;5065871;28;20194;-59
2023/11/15 04:05:03;;;;;;;3.65;2.78;;;;;;;;;;5065292;28;20423;-58
2023/11/15 04:07:29;;;;;;;4.85;3.00;;;;;;;;;;5064795;28;20037;-58
2023/11/15 04:09:55;;;;;;;4.53;3.40;;;;;;;;;;5071254;28;20055;-58
2023/11/15 04:12:20;;;;;;;3.97;2.70;;;;;;;;;;5070120;28;20081;-59
2023/11/15 04:14:45;;;;;;;4.25;2.97;;;;;;;;;;5066164;28;20043;-59
2023/11/15 04:17:11;;;;;;;3.83;2.60;;;;;;;;;;5064352;28;20493;-58
2023/11/15 04:19:36;;;;;;;4.03;2.67;;;;;;;;;;5063211;28;20421;-58
2023/11/15 04:22:01;;;;;;;3.33;2.87;;;;;;;;;;5075666;28;20036;-60
2023/11/15 04:24:27;;;;;;;4.22;3.00;;;;;;;;;;5065179;28;20294;-58
2023/11/15 04:26:52;;;;;;;4.05;2.67;;;;;;;;;;5065345;28;20207;-58
2023/11/15 04:29:18;;;;;;;4.32;3.00;;;;;;;;;;5062545;28;20083;-58
2023/11/15 04:31:44;;;;;;;4.25;2.83;;;;;;;;;;5070964;28;20414;-58
2023/11/15 04:34:09;;;;;;;4.03;2.80;;;;;;;;;;5070189;28;20028;-59
2023/11/15 04:36:34;;;;;;;4.03;2.65;;;;;;;;;;5064101;28;20032;-58
2023/11/15 04:39:00;;;;;;;3.72;2.70;;;;;;;;;;5065043;28;20501;-57
2023/11/15 04:41:25;;;;;;;3.97;2.90;;;;;;;;;;5064858;28;20079;-57
2023/11/15 04:43:50;;;;;;;3.60;2.67;;;;;;;;;;5065162;28;20057;-59
2023/11/15 04:46:16;;;;;;;4.57;3.05;;;;;;;;;;5065565;28;20279;-58
2023/11/15 04:48:41;;;;;;;5.32;3.00;;;;;;;;;;5066852;28;20526;-58
2023/11/15 04:51:06;;;;;;;6.03;3.13;;;;;;;;;;5068251;28;20430;-58
2023/11/15 04:53:32;;;;;;;4.03;2.78;;;;;;;;;;5047377;28;22332;-57
2023/11/15 04:55:57;;;;;;;4.13;2.80;;;;;;;;;;5059756;28;20520;-58
2023/11/15 04:58:22;;;;;;;3.78;2.40;;;;;;;;;;5060802;28;20091;-58
2023/11/15 05:00:48;;;;;;;4.00;2.93;;;;;;;;;;5060062;28;20111;-59
2023/11/15 05:03:13;;;;;;;3.60;2.85;;;;;;;;;;5043179;28;20279;-58
2023/11/15 05:05:39;;;;;;;3.75;2.67;;;;;;;;;;5063672;28;20439;-58
2023/11/15 05:08:04;;;;;;;4.05;2.78;;;;;;;;;;5065143;28;20482;-58
2023/11/15 05:10:29;;;;;;;4.03;2.90;;;;;;;;;;5061219;28;20044;-58
2023/11/15 05:12:55;;;;;;;4.15;2.53;;;;;;;;;;5064166;28;20088;-57
2023/11/15 05:15:20;;;;;;;3.75;2.50;;;;;;;;;;5061871;28;20458;-59
2023/11/15 05:17:45;;;;;;;4.60;2.67;;;;;;;;;;5062802;28;20093;-59
2023/11/15 05:20:11;;;;;;;3.63;2.67;;;;;;;;;;5064027;28;20415;-57
2023/11/15 05:22:36;;;;;;;3.67;2.55;;;;;;;;;;5067375;28;20112;-58
2023/11/15 05:25:01;;;;;;;3.38;2.55;;;;;;;;;;5065134;28;20044;-57
2023/11/15 05:27:27;;;;;;;4.53;2.78;;;;;;;;;;5068025;28;20066;-58
2023/11/15 05:29:52;;;;;;;5.70;2.27;;;;;;;;;;5063956;28;20426;-57
2023/11/15 05:32:17;;;;;;;4.88;2.40;;;;;;;;;;5047086;28;20451;-57
2023/11/15 05:34:43;;;;;;;3.88;2.45;;;;;;;;;;5046623;28;20056;-58
2023/11/15 05:37:08;;;;;;;4.00;2.35;;;;;;;;;;5051097;28;20427;-59
2023/11/15 05:39:33;;;;;;;3.78;2.45;;;;;;;;;;5045743;28;20049;-57
2023/11/15 05:41:59;;;;;;;3.75;2.45;;;;;;;;;;5050130;28;20036;-57
2023/11/15 05:44:24;;;;;;;3.72;2.42;;;;;;;;;;5046512;28;20494;-57
2023/11/15 05:46:50;;;;;;;3.50;2.28;;;;;;;;;;5047164;28;20032;-58
2023/11/15 05:49:15;;;;;;;3.70;2.30;;;;;;;;;;5047452;28;20048;-56
2023/11/15 05:51:42;;;;;;;3.30;2.30;;;;;;;;;;5048104;28;20116;-59
2023/11/15 05:54:07;;;;;;;3.53;2.30;;;;;;;;;;5045183;28;20568;-61
2023/11/15 05:56:32;;;;;;;3.17;2.30;;;;;;;;;;5051886;28;20040;-57
2023/11/15 05:58:58;;;;;;;2.85;2.13;;;;;;;;;;5049042;28;20035;-58
2023/11/15 06:01:24;;;;;;;3.42;2.45;;;;;;;;;;5045600;28;20567;-60
2023/11/15 06:03:50;;;;;;;3.03;2.08;;;;;;;;;;5045697;28;20686;-58
2023/11/15 06:06:15;;;;;;;3.40;2.30;;;;;;;;;;5055225;28;20033;-58
2023/11/15 06:08:40;;;;;;;3.85;2.28;;;;;;;;;;5060742;28;20123;-59
2023/11/15 06:11:05;;;;;;;2.85;2.17;;;;;;;;;;5054571;28;20032;-59
2023/11/15 06:13:31;;;;;;;4.00;2.30;;;;;;;;;;5055740;28;20453;-60
2023/11/15 06:15:56;;;;;;;3.65;2.28;;;;;;;;;;5041591;28;20112;-58
2023/11/15 06:18:21;;;;;;;4.10;2.28;;;;;;;;;;5051648;28;20501;-58
2023/11/15 06:20:47;;;;;;;3.00;1.90;;;;;;;;;;5055482;28;20067;-60
2023/11/15 06:23:13;;;;;;;3.33;2.20;;;;;;;;;;5050411;28;20064;-61
2023/11/15 06:25:39;;;;;;;4.10;2.30;;;;;;;;;;5047822;28;20397;-58
2023/11/15 06:28:05;;;;;;;4.20;2.35;;;;;;;;;;5045338;28;20499;-58
2023/11/15 06:30:30;;;;;;;3.53;2.22;;;;;;;;;;5047140;28;20051;-60
2023/11/15 06:32:56;;;;;;;3.65;2.20;;;;;;;;;;5052606;28;20477;-60
2023/11/15 06:35:21;;;;;;;2.85;1.98;;;;;;;;;;5047667;28;20119;-60
2023/11/15 06:37:46;;;;;;;4.10;2.30;;;;;;;;;;5061977;28;20028;-59
2023/11/15 06:40:13;;;;;;;3.53;2.30;;;;;;;;;;5057744;28;20029;-58
2023/11/15 06:42:39;;;;;;;3.42;2.28;;;;;;;;;;5058560;28;20052;-58
2023/11/15 06:45:04;;;;;;;3.60;2.15;;;;;;;;;;5053926;28;20055;-59
2023/11/15 06:47:30;;;;;;;3.00;1.75;;;;;;;;;;5058585;28;20544;-59
2023/11/15 06:49:55;;;;;;;4.40;2.30;;;;;;;;;;5055136;28;20128;-58
2023/11/15 06:52:20;;;;;;;3.08;2.20;;;;;;;;;;5061784;28;20068;-60
2023/11/15 06:54:46;;;;;;;2.92;2.00;;;;;;;;;;5061670;28;20049;-59
2023/11/15 06:57:11;;;;;;;3.45;2.13;;;;;;;;;;5061021;28;20047;-61
2023/11/15 06:59:37;;;;;;;3.15;2.03;;;;;;;;;;5052463;28;20055;-59
2023/11/15 07:02:06;;;;;;;2.50;1.90;;;;;;;;;;5053645;28;20097;-59
2023/11/15 07:04:31;;;;;;;2.88;1.80;;;;;;;;;;5060053;28;20048;-56
2023/11/15 07:06:56;;;;;;;3.15;2.00;;;;;;;;;;5059478;28;20029;-57
2023/11/15 07:09:22;;;;;;;2.83;1.92;;;;;;;;;;5058709;28;20124;-58
2023/11/15 07:11:48;;;;;;;3.38;2.13;;;;;;;;;;5053778;28;20076;-58
2023/11/15 07:14:17;;;;;;;8.75;2.55;;;;;;;;;;5054596;28;20028;-57
2023/11/15 07:16:52;;;;;;;4.10;2.10;;;;;;;;;;5053816;28;20033;-58
2023/11/15 07:19:18;;;;;;;7.20;2.50;;;;;;;;;;5065633;28;20116;-58
2023/11/15 07:21:43;;;;;;;5.18;2.00;;;;;;;;;;5051362;28;20497;-58
2023/11/15 07:24:09;;;;;;;4.05;2.13;;;;;;;;;;5057870;28;20035;-59
2023/11/15 07:26:35;;;;;;;5.15;1.88;;;;;;;;;;5060981;28;20021;-58
2023/11/15 07:29:01;;;;;;;3.75;2.17;;;;;;;;;;5057411;28;20119;-57
2023/11/15 07:31:26;;;;;;;3.47;2.03;;;;;;;;;;5059452;28;20078;-58
2023/11/15 07:33:52;;;;;;;4.10;2.00;;;;;;;;;;5039543;28;20020;-60
2023/11/15 07:36:17;;;;;;;3.47;1.90;;;;;;;;;;5060701;28;20082;-56
2023/11/15 07:38:42;;;;;;;6.17;2.13;;;;;;;;;;5063020;28;20027;-58
2023/11/15 07:41:08;;;;;;;3.47;1.90;;;;;;;;;;5064593;28;20263;-59
2023/11/15 07:43:33;;;;;;;4.47;2.00;;;;;;;;;;5060931;28;20406;-59
2023/11/15 07:45:59;;;;;;;3.20;1.95;;;;;;;;;;5061442;28;20283;-59
2023/11/15 07:48:25;;;;;;;3.55;2.30;;;;;;;;;;5066914;28;20474;-58
2023/11/15 07:50:51;;;;;;;4.32;2.15;;;;;;;;;;5061217;28;20315;-59
2023/11/15 07:53:16;;;;;;;4.60;2.47;;;;;;;;;;5053392;28;20618;-59
2023/11/15 07:55:42;;;;;;;4.35;2.13;;;;;;;;;;5064593;28;20048;-60
2023/11/15 07:58:08;;;;;;;4.45;2.05;;;;;;;;;;5060370;28;20108;-57
2023/11/15 08:00:35;;;;;;;4.15;2.28;;;;;;;;;;5059245;28;20027;-58
2023/11/15 08:03:00;;;;;;;3.03;2.10;;;;;;;;;;5061827;28;20089;-58
2023/11/15 08:05:26;;;;;;;2.70;1.73;;;;;;;;;;5047535;28;20103;-59
2023/11/15 08:07:52;;;;;;;3.63;2.03;;;;;;;;;;5040413;28;20045;-57
2023/11/15 08:10:18;;;;;;;3.15;1.98;;;;;;;;;;5043972;28;20535;-58
2023/11/15 08:12:43;;;;;;;3.42;1.92;;;;;;;;;;5077790;28;20117;-58
2023/11/15 08:15:11;;;;;;;3.88;2.20;;;;;;;;;;5060483;28;20411;-58
2023/11/15 08:17:37;;;;;;;3.75;1.92;;;;;;;;;;5044745;28;20032;-58
2023/11/15 08:20:04;;;;;;;3.20;1.85;;;;;;;;;;5064689;28;20039;-57
2023/11/15 08:22:29;;;;;;;4.30;1.88;;;;;;;;;;5057774;28;20090;-57
2023/11/15 08:24:55;;;;;;;3.65;2.20;;;;;;;;;;5046111;28;20029;-58
2023/11/15 08:27:20;;;;;;;3.30;2.10;;;;;;;;;;5075158;28;20406;-58
2023/11/15 08:32:48;;;;;;;4.03;2.10;;;;;;;;;;5048236;28;20056;-58
2023/11/15 08:35:17;;;;;;;3.42;1.90;;;;;;;;;;5045514;28;20052;-58
2023/11/15 08:37:42;;;;;;;3.58;1.85;;;;;;;;;;5060949;28;20136;-57
2023/11/15 08:40:14;;;;;;;2.88;1.90;;;;;;;;;;5059951;28;20043;-58
2023/11/15 08:42:39;;;;;;;2.58;1.70;;;;;;;;;;5046401;28;20044;-58
2023/11/15 08:45:08;;;;;;;3.88;2.00;;;;;;;;;;5056364;28;20029;-58
2023/11/15 08:47:34;;;;;;;3.25;1.73;;;;;;;;;;5055534;28;20847;-60
2023/11/15 08:49:59;;;;;;;3.22;1.95;;;;;;;;;;5055948;28;20120;-57
2023/11/15 08:52:25;;;;;;;3.05;2.08;;;;;;;;;;5044464;28;20048;-58
2023/11/15 08:54:51;;;;;;;3.47;2.00;;;;;;;;;;5058281;28;20035;-57
2023/11/15 08:57:16;;;;;;;3.50;1.83;;;;;;;;;;5053962;28;20043;-59
2023/11/15 08:59:42;;;;;;;3.50;1.80;;;;;;;;;;5059561;28;20044;-57
2023/11/15 09:02:10;;;;;;;3.03;1.80;;;;;;;;;;5036656;28;20516;-57
2023/11/15 09:04:36;;;;;;;3.35;1.95;;;;;;;;;;5051701;28;20567;-57
2023/11/15 09:07:02;;;;;;;3.20;2.10;;;;;;;;;;5055047;28;20945;-58
2023/11/15 09:09:27;;;;;;;3.58;1.98;;;;;;;;;;5037869;28;20116;-58
2023/11/15 09:11:56;;;;;;;6.72;2.05;;;;;;;;;;5051482;28;20434;-58
2023/11/15 09:14:22;;;;;;;2.85;1.65;;;;;;;;;;5058595;28;20039;-57
2023/11/15 09:16:47;;;;;;;3.22;2.10;;;;;;;;;;5063777;28;20123;-59
2023/11/15 09:19:16;;;;;;;4.25;2.17;;;;;;;;;;5064395;28;20120;-58
2023/11/15 09:21:41;;;;;;;3.03;1.67;;;;;;;;;;5063510;28;20110;-58
2023/11/15 09:24:07;;;;;;;2.47;1.70;;;;;;;;;;5063838;28;20422;-58
2023/11/15 09:26:32;;;;;;;3.35;1.92;;;;;;;;;;5063924;28;20494;-59
2023/11/15 09:28:58;;;;;;;2.78;1.80;;;;;;;;;;5063998;28;20032;-58
2023/11/15 09:31:23;;;;;;;3.88;1.70;;;;;;;;;;5063127;28;20048;-58
2023/11/15 09:33:51;;;;;;;3.28;2.10;;;;;;;;;;5062674;28;20785;-57
2023/11/15 09:36:16;;;;;;;3.30;2.38;;;;;;;;;;5062847;28;20029;-57
2023/11/15 09:38:42;;;;;;;3.20;2.00;;;;;;;;;;5064281;28;20415;-58
2023/11/15 09:41:11;;;;;;;3.00;2.13;;;;;;;;;;5063549;28;20816;-58
2023/11/15 09:43:37;;;;;;;2.88;1.88;;;;;;;;;;5063574;28;20037;-58
2023/11/15 09:46:08;;;;;;;3.25;1.90;;;;;;;;;;5062862;28;20033;-58
2023/11/15 09:48:33;;;;;;;4.18;2.00;;;;;;;;;;5064283;28;20040;-58
2023/11/15 09:50:59;;;;;;;4.47;1.93;;;;;;;;;;5062153;28;20632;-58
2023/11/15 09:53:25;;;;;;;3.13;1.88;;;;;;;;;;5063392;28;20351;-57
2023/11/15 09:55:51;;;;;;;3.38;1.85;;;;;;;;;;5062654;28;20094;-58
2023/11/15 09:58:17;;;;;;;3.80;1.90;;;;;;;;;;5062862;28;20811;-57
2023/11/15 10:00:46;;;;;;;2.55;1.50;;;;;;;;;;5062879;28;20040;-58
2023/11/15 10:03:11;;;;;;;3.07;2.00;;;;;;;;;;5063228;28;20425;-57
2023/11/15 10:05:39;;;;;;;3.63;2.03;;;;;;;;;;5062484;28;20297;-58
2023/11/15 10:08:06;;;;;;;3.38;1.83;;;;;;;;;;5063812;28;20056;-57
2023/11/15 10:10:32;;;;;;;4.70;2.00;;;;;;;;;;5059511;28;20133;-58
2023/11/15 10:12:57;;;;;;;2.97;1.65;;;;;;;;;;5063390;28;20531;-57
2023/11/15 10:15:39;;;;;;;4.95;1.80;;;;;;;;;;5055388;28;20028;-57
2023/11/15 10:18:04;;;;;;;7.07;2.10;;;;;;;;;;5048537;28;20041;-58
2023/11/15 10:20:30;;;;;;;2.80;1.85;;;;;;;;;;5049788;28;20017;-56
2023/11/15 10:22:57;;;;;;;5.38;2.00;;;;;;;;;;5046589;28;20541;-58
2023/11/15 10:25:25;;;;;;;4.40;2.05;;;;;;;;;;5047681;28;20021;-59
2023/11/15 10:27:51;;;;;;;3.10;1.92;;;;;;;;;;5047453;28;20108;-58
2023/11/15 10:30:19;;;;;;;4.28;1.70;;;;;;;;;;5047154;28;20213;-57
2023/11/15 10:32:45;;;;;;;3.13;1.80;;;;;;;;;;5047888;28;20029;-58
2023/11/15 10:35:11;;;;;;;3.85;2.10;;;;;;;;;;5048244;28;20506;-58
2023/11/15 10:37:54;;;;;;;3.47;2.10;;;;;;;;;;5048283;28;20161;-57
2023/11/15 10:40:25;;;;;;;3.38;1.70;;;;;;;;;;5047998;28;20045;-58
2023/11/15 10:42:51;;;;;;;3.17;1.65;;;;;;;;;;5058920;28;20324;-57
2023/11/15 10:45:17;;;;;;;1.92;1.40;;;;;;;;;;5061399;28;20036;-57
2023/11/15 10:47:48;;;;;;;2.85;1.88;;;;;;;;;;5052320;28;20146;-58
2023/11/15 10:50:15;;;;;;;11.10;2.53;;;;;;;;;;5053195;28;20064;-58
2023/11/15 10:52:41;;;;;;;6.25;1.73;;;;;;;;;;5043400;28;20076;-59
2023/11/15 10:55:07;;;;;;;3.92;1.70;;;;;;;;;;5048829;28;20064;-58
2023/11/15 10:57:32;;;;;;;3.58;1.70;;;;;;;;;;5046199;28;20131;-59
2023/11/15 10:59:58;;;;;;;5.28;1.70;;;;;;;;;;5048297;28;20675;-58
2023/11/15 11:02:25;;;;;;;3.92;1.92;;;;;;;;;;5049654;28;20032;-58
2023/11/15 11:04:50;;;;;;;3.40;1.75;;;;;;;;;;5047886;28;20037;-57
2023/11/15 11:07:40;;;;;;;3.75;1.90;;;;;;;;;;5047464;28;20509;-57
2023/11/15 11:10:12;;;;;;;4.00;2.00;;;;;;;;;;5043033;28;20029;-57
2023/11/15 11:12:37;;;;;;;3.97;1.98;;;;;;;;;;5051745;28;20121;-58
2023/11/15 11:15:30;;;;;;;3.85;1.77;;;;;;;;;;5044507;28;20503;-57
2023/11/15 11:18:05;;;;;;;4.40;1.98;;;;;;;;;;5045669;28;20048;-58
2023/11/15 11:20:34;;;;;;;3.90;1.80;;;;;;;;;;5051220;28;20087;-59
2023/11/15 11:23:17;;;;;;;3.10;1.50;;;;;;;;;;5047589;28;20131;-57
2023/11/15 11:25:42;;;;;;;5.40;1.80;;;;;;;;;;5044223;28;20063;-58
2023/11/15 11:28:12;;;;;;;2.47;1.60;;;;;;;;;;5048484;28;20127;-58
2023/11/15 11:30:37;;;;;;;2.80;1.45;;;;;;;;;;5048930;28;20442;-58
2023/11/15 11:33:13;;;;;;;2.83;1.77;;;;;;;;;;5044984;28;20127;-58
2023/11/15 11:35:40;;;;;;;3.45;1.73;;;;;;;;;;5050626;28;20060;-57
2023/11/15 11:38:06;;;;;;;2.90;1.70;;;;;;;;;;5048795;28;20385;-57
2023/11/15 11:40:32;;;;;;;2.97;1.73;;;;;;;;;;5048996;28;20032;-57
2023/11/15 11:43:16;;;;;;;4.47;2.00;;;;;;;;;;5050037;28;20028;-58
2023/11/15 11:45:45;;;;;;;2.70;1.58;;;;;;;;;;5051303;27;20120;-58
2023/11/15 11:48:17;;;;;;;2.17;1.30;;;;;;;;;;5051149;28;20068;-57
2023/11/15 11:50:55;;;;;;;2.22;1.58;;;;;;;;;;5080484;28;20043;-57
2023/11/15 11:53:21;;;;;;;4.40;1.77;;;;;;;;;;5049791;28;20821;-58
2023/11/15 11:55:48;;;;;;;2.83;1.67;;;;;;;;;;5049163;28;20119;-57
2023/11/15 11:58:13;;;;;;;2.28;1.55;;;;;;;;;;5051450;28;20032;-58
2023/11/15 12:00:39;;;;;;;2.00;1.40;;;;;;;;;;5049099;28;20045;-58
2023/11/15 12:03:08;;;;;;;2.57;1.60;;;;;;;;;;5050114;28;20495;-59
2023/11/15 12:05:33;;;;;;;3.83;1.52;;;;;;;;;;5054082;28;20435;-58
2023/11/15 12:07:59;;;;;;;2.40;1.45;;;;;;;;;;5049386;28;20029;-58
2023/11/15 12:10:25;;;;;;;1.92;1.33;;;;;;;;;;5048842;28;20851;-58
2023/11/15 12:12:54;;;;;;;3.25;1.60;;;;;;;;;;5055729;28;20146;-58
2023/11/15 12:15:22;;;;;;;3.33;1.40;;;;;;;;;;5054561;28;20041;-58
2023/11/15 12:17:48;;;;;;;2.85;1.27;;;;;;;;;;5049427;28;20040;-58
2023/11/15 12:20:13;;;;;;;2.88;1.52;;;;;;;;;;5054916;28;20033;-60
2023/11/15 12:22:43;;;;;;;2.00;1.20;;;;;;;;;;5048488;28;20801;-59
2023/11/15 12:25:13;;;;;;;3.05;1.42;;;;;;;;;;5049257;28;20047;-59
2023/11/15 12:27:39;;;;;;;1.88;1.30;;;;;;;;;;5046876;28;20533;-59
2023/11/15 12:30:07;;;;;;;2.20;1.27;;;;;;;;;;5049116;28;20037;-58
2023/11/15 12:32:34;;;;;;;2.20;1.40;;;;;;;;;;5050360;28;20099;-60
2023/11/15 12:34:59;;;;;;;2.53;1.20;;;;;;;;;;5036095;28;20868;-59
2023/11/15 12:37:26;;;;;;;2.38;1.30;;;;;;;;;;5048149;28;20119;-58
2023/11/15 12:39:51;;;;;;;2.28;1.40;;;;;;;;;;5048633;28;20033;-59
2023/11/15 12:42:25;;;;;;;2.20;1.10;;;;;;;;;;5048712;28;20043;-59
2023/11/15 12:44:50;;;;;;;1.95;1.40;;;;;;;;;;5050660;28;20815;-58
2023/11/15 12:47:16;;;;;;;1.95;1.30;;;;;;;;;;5048870;28;20052;-59
2023/11/15 12:49:41;;;;;;;2.28;1.30;;;;;;;;;;5048844;28;20040;-59
2023/11/15 12:52:07;;;;;;;1.60;1.08;;;;;;;;;;5052246;28;20052;-59
2023/11/15 12:54:35;;;;;;;2.15;1.02;;;;;;;;;;5048589;28;20063;-57
2023/11/15 12:57:03;;;;;;;2.47;1.38;;;;;;;;;;5047464;28;20048;-57
2023/11/15 12:59:32;;;;;;;2.30;1.58;;;;;;;;;;5080636;27;20033;-58
2023/11/15 13:01:57;;;;;;;1.95;1.10;;;;;;;;;;5048747;28;20040;-57
2023/11/15 13:04:23;;;;;;;2.03;1.30;;;;;;;;;;5048858;28;20494;-56
2023/11/15 13:06:49;;;;;;;1.95;1.23;;;;;;;;;;5047790;28;20029;-56
2023/11/15 13:09:16;;;;;;;4.00;1.30;;;;;;;;;;5048199;28;20394;-57
2023/11/15 13:11:42;;;;;;;1.65;1.05;;;;;;;;;;5048352;28;20047;-57
2023/11/15 13:14:08;;;;;;;2.10;1.20;;;;;;;;;;5050512;28;20379;-57
2023/11/15 13:16:33;;;;;;;2.08;1.30;;;;;;;;;;5052130;28;20834;-57
2023/11/15 13:18:59;;;;;;;3.05;1.30;;;;;;;;;;5048131;28;20047;-57
2023/11/15 13:21:25;;;;;;;2.33;1.20;;;;;;;;;;5048676;28;20040;-58
2023/11/15 13:23:53;;;;;;;1.67;0.95;;;;;;;;;;5048722;28;20037;-58
2023/11/15 13:26:19;;;;;;;1.98;1.13;;;;;;;;;;5047744;28;20025;-58
2023/11/15 13:28:47;;;;;;;3.53;1.00;;;;;;;;;;5051446;28;20037;-60
2023/11/15 13:31:12;;;;;;;1.67;1.02;;;;;;;;;;5049283;28;20063;-58
2023/11/15 13:33:38;;;;;;;2.53;1.02;;;;;;;;;;5048943;28;20060;-63
2023/11/15 13:36:05;;;;;;;2.33;1.05;;;;;;;;;;5061895;28;20045;-62
2023/11/15 13:38:31;;;;;;;1.73;1.00;;;;;;;;;;5049997;28;20454;-63
2023/11/15 13:40:56;;;;;;;2.42;1.27;;;;;;;;;;5051223;28;20132;-63
2023/11/15 13:43:22;;;;;;;3.60;1.17;;;;;;;;;;5064835;28;20119;-62
2023/11/15 13:45:47;;;;;;;1.75;1.00;;;;;;;;;;5047784;28;20387;-62
2023/11/15 13:48:13;;;;;;;1.77;1.40;;;;;;;;;;5052716;28;20044;-63
2023/11/15 13:50:39;;;;;;;2.70;0.93;;;;;;;;;;5048507;28;20032;-63
2023/11/15 13:53:04;;;;;;;1.60;0.93;;;;;;;;;;5052851;28;20056;-62
2023/11/15 13:55:29;;;;;;;2.85;1.10;;;;;;;;;;5049226;28;20491;-64
2023/11/15 13:57:55;;;;;;;2.15;1.00;;;;;;;;;;5046272;28;20033;-62
2023/11/15 14:00:27;;;;;;;1.92;1.10;;;;;;;;;;5047345;28;20051;-64
2023/11/15 14:02:53;;;;;;;2.10;1.30;;;;;;;;;;5049797;28;20033;-63
2023/11/15 14:05:20;;;;;;;1.48;0.90;;;;;;;;;;5053123;28;20083;-64
2023/11/15 14:07:45;;;;;;;1.52;0.90;;;;;;;;;;5053546;28;20028;-63
2023/11/15 14:10:12;;;;;;;2.13;1.00;;;;;;;;;;5057324;28;20025;-63
2023/11/15 14:12:39;;;;;;;1.88;0.80;;;;;;;;;;5052241;28;20090;-63
2023/11/15 14:15:07;;;;;;;1.25;0.80;;;;;;;;;;5053578;28;20647;-63
2023/11/15 14:17:35;;;;;;;1.67;0.98;;;;;;;;;;5051439;28;20090;-61
2023/11/15 14:20:01;;;;;;;2.30;1.05;;;;;;;;;;5056538;28;20416;-62
2023/11/15 14:22:29;;;;;;;1.58;0.80;;;;;;;;;;5056656;28;20115;-61
2023/11/15 14:24:54;;;;;;;2.17;0.75;;;;;;;;;;5053675;28;20036;-62
2023/11/15 14:27:20;;;;;;;1.58;1.00;;;;;;;;;;5055384;28;20033;-63
2023/11/15 14:29:45;;;;;;;1.52;0.90;;;;;;;;;;5054479;28;20455;-63
2023/11/15 14:32:15;;;;;;;1.52;0.88;;;;;;;;;;5051501;28;20476;-62
2023/11/15 14:34:42;;;;;;;1.60;0.85;;;;;;;;;;5055048;28;20063;-61
2023/11/15 14:37:09;;;;;;;1.63;0.80;;;;;;;;;;5055883;28;20748;-62
2023/11/15 14:39:34;;;;;;;2.55;0.90;;;;;;;;;;5054067;28;20032;-63
2023/11/15 14:42:00;;;;;;;1.67;1.00;;;;;;;;;;5051891;28;20051;-63